Latest Coastal Weather Observations for Dum In Mirrie

IDD60701

Issued at 9:41 am CST Monday 26 January 2015 (issued every 10 minutes, with the page automatically refreshed every 10 minutes)

About coastal observations | Map of coastal stations | Coastal observations for NT | Marine services | Other Formats
Station Details ID: 014277 Name: DUM IN MIRRIE AIRSTRIP Lat: -12.63 Lon: 130.37 Height: 3.5 m
Data from the previous 72 hours. | See also: Recent months at Dum In Mirrie
Date/Time
CST
Temp

°C
Wind Pressure Rain
since 9am
mm
Weather Cloud Vis
km
Sea
Height
m
Swell
Dir
 
Speed
knots
Gust
knots
hPa Trend Height
m
Period
s
Dir
26/09:30am 30.1 W 8 13 1008.7 - 0.2 - - - - - - -
26/09:00am 30.0 WNW 6 10 1008.6 - 0.4 - - - - - - -
26/08:30am 29.7 WNW 6 10 1008.8 - 0.4 - - - - - - -
26/08:00am 29.4 WNW 6 10 1008.4 - 0.4 - - - - - - -
26/07:30am 28.7 WNW 4 9 1008.1 - 0.4 - - - - - - -
26/07:00am 28.5 WNW 4 8 1008.0 - 0.4 - - - - - - -
26/06:30am 28.3 WNW 5 8 1008.0 - 0.4 - - - - - - -
26/06:00am 28.4 W 6 9 1008.0 - 0.4 - - - - - - -
26/05:30am 28.0 WNW 5 8 1007.6 - 0.4 - - - - - - -
26/05:00am 27.7 W 5 9 1007.2 - 0.4 - - - - - - -
26/04:30am 27.4 WNW 3 6 1007.1 - 0.4 - - - - - - -
26/04:00am 27.4 W 10 17 1007.1 - 0.4 - - - - - - -
26/03:30am 28.6 W 3 5 1006.9 - 0.0 - - - - - - -
26/03:00am 28.5 W 3 7 1007.0 - 0.0 - - - - - - -
26/02:30am 28.6 W 3 5 1007.1 - 0.0 - - - - - - -
26/02:00am 28.8 W 5 8 1007.6 - 0.0 - - - - - - -
26/01:30am 28.7 W 4 8 1007.8 - 0.0 - - - - - - -
26/01:00am 28.8 W 6 10 1008.1 - 0.0 - - - - - - -
26/12:30am 29.0 W 5 9 1008.6 - 0.0 - - - - - - -
26/12:00am 29.1 W 5 7 1008.9 - 0.0 - - - - - - -
 
Date/Time
CST
Temp

°C
Wind Pressure Rain
since 9am
mm
Weather Cloud Vis
km
Sea
Height
m
Swell
Dir
 
Speed
knots
Gust
knots
hPa Trend Height
m
Period
s
Dir
25/11:30pm 28.9 W 5 8 1008.9 - 0.0 - - - - - - -
25/11:00pm 29.2 W 7 12 1008.8 - 0.0 - - - - - - -
25/10:30pm 29.3 W 9 14 1008.9 - 0.0 - - - - - - -
25/10:00pm 29.2 W 7 11 1008.5 - 0.0 - - - - - - -
25/09:30pm 29.4 W 9 15 1008.7 - 0.0 - - - - - - -
25/09:00pm 29.2 W 5 8 1008.4 - 0.0 - - - - - - -
25/08:30pm 29.1 W 6 10 1008.3 - 0.0 - - - - - - -
25/08:00pm 29.1 W 6 9 1008.2 - 0.0 - - - - - - -
25/07:30pm 29.1 WNW 5 8 1007.8 - 0.0 - - - - - - -
25/07:00pm 29.2 W 5 8 1007.2 - 0.0 - - - - - - -
25/06:30pm 29.5 W 5 9 1007.0 - 0.0 - - - - - - -
25/06:00pm 29.5 W 8 13 1006.7 - 0.0 - - - - - - -
25/05:30pm 29.5 WNW 5 9 1006.7 - 0.0 - - - - - - -
25/05:00pm 29.7 W 7 11 1006.2 - 0.0 - - - - - - -
25/04:30pm 30.1 W 8 12 1006.5 - 0.0 - - - - - - -
25/04:00pm 30.6 WSW 9 14 1006.7 - 0.0 - - - - - - -
25/03:30pm 32.0 W 7 14 1006.9 - 0.0 - - - - - - -
25/03:00pm 30.8 W 7 14 1007.3 - 0.0 - - - - - - -
25/02:30pm 31.8 W 8 13 1007.9 - 0.0 - - - - - - -
25/02:00pm 31.7 W 8 14 1007.9 - 0.0 - - - - - - -
25/01:30pm 31.7 W 7 12 1008.3 - 0.0 - - - - - - -
25/01:00pm 31.6 W 6 11 1008.7 - 0.0 - - - - - - -
25/12:30pm 31.3 W 7 12 1008.9 - 0.0 - - - - - - -
25/12:00pm 31.2 WNW 7 12 1009.1 - 0.0 - - - - - - -
25/11:30am 31.3 W 7 11 1009.5 - 0.0 - - - - - - -
25/11:00am 31.6 WNW 5 9 1010.1 - 0.0 - - - - - - -
25/10:30am 30.8 W 7 11 1010.2 - 0.0 - - - - - - -
25/10:00am 30.7 W 6 11 1010.0 - 0.0 - - - - - - -
25/09:30am 30.7 W 6 9 1010.0 - 0.0 - - - - - - -
25/09:00am 30.3 W 5 9 1009.7 - 12.6 Recent precip. - - - - - -
25/08:30am 29.8 W 6 11 1009.2 - 12.6 - - - - - - -
25/08:00am 29.4 WNW 6 9 1008.6 - 12.4 - - - - - - -
25/07:30am 29.2 WNW 4 8 1008.4 - 12.4 - - - - - - -
25/07:00am 28.5 WNW 5 9 1008.0 - 12.4 - - - - - - -
25/06:30am 28.4 WNW 6 11 1007.6 - 12.4 - - - - - - -
25/06:00am 28.3 WNW 5 9 1007.1 - 12.4 - - - - - - -
25/05:30am 28.3 WNW 5 9 1007.1 - 12.4 - - - - - - -
25/05:00am 28.4 WNW 5 10 1007.2 - 12.4 - - - - - - -
25/04:30am 28.3 WNW 4 7 1007.4 - 12.4 - - - - - - -
25/04:00am 28.4 WNW 3 6 1007.4 - 12.4 - - - - - - -
25/03:30am 28.5 WNW 4 7 1007.2 - 12.4 - - - - - - -
25/03:00am 28.6 WNW 5 8 1007.2 - 12.4 - - - - - - -
25/02:30am 28.6 WNW 5 9 1007.3 - 12.4 - - - - - - -
25/02:00am 28.6 WNW 5 10 1007.2 - 12.4 - - - - - - -
25/01:30am 28.7 WNW 5 9 1007.3 - 12.4 - - - - - - -
25/01:00am 28.6 WNW 4 8 1007.8 - 12.4 - - - - - - -
25/12:30am 28.6 WNW 5 8 1008.2 - 12.4 - - - - - - -
25/12:00am 28.3 NW 3 7 1008.7 - 12.4 - - - - - - -
 
Date/Time
CST
Temp

°C
Wind Pressure Rain
since 9am
mm
Weather Cloud Vis
km
Sea
Height
m
Swell
Dir
 
Speed
knots
Gust
knots
hPa Trend Height
m
Period
s
Dir
24/11:30pm 28.3 NW 3 7 1008.7 - 12.4 - - - - - - -
24/11:00pm 28.3 NW 4 7 1009.0 - 12.4 - - - - - - -
24/10:30pm 28.5 WNW 6 10 1008.5 - 12.4 - - - - - - -
24/10:00pm 28.6 W 5 10 1008.4 - 12.4 - - - - - - -
24/09:30pm 28.1 WNW 5 11 1008.0 - 12.4 - - - - - - -
24/09:00pm 27.6 W 5 9 1007.7 - 12.4 - - - - - - -
24/08:30pm 27.6 WNW 6 10 1007.7 - 12.4 - - - - - - -
24/08:00pm 27.6 WNW 6 10 1007.4 - 12.4 - - - - - - -
24/07:30pm 27.5 WNW 6 13 1007.1 - 12.4 - - - - - - -
24/07:00pm 26.3 NW 4 8 1006.8 - 12.4 - - - - - - -
24/06:30pm 26.6 NNW 4 7 1006.0 - 12.4 - - - - - - -
24/06:00pm 25.7 WNW 8 16 1005.3 - 12.4 Recent precip. - - - - - -
24/05:30pm 25.1 W 10 16 1005.3 - 12.4 - - - - - - -
24/05:00pm 23.6 NW 6 11 1005.9 - 12.0 - - - - - - -
24/04:30pm 23.8 NNE 12 23 1006.1 - 6.6 - - - - - - -
24/04:00pm 25.9 E 6 10 1006.4 - 1.0 - - - - - - -
24/03:30pm 27.4 NW 4 10 1006.1 - 0.0 - - - - - - -
24/03:00pm 29.7 W 5 9 1005.6 - 0.0 - - - - - - -
24/02:30pm 30.4 W 6 11 1005.9 - 0.0 - - - - - - -
24/02:00pm 30.5 W 7 14 1005.8 - 0.0 - - - - - - -
24/01:30pm 30.9 W 10 16 1006.0 - 0.0 - - - - - - -
24/01:00pm 31.1 W 10 16 1006.0 - 0.0 - - - - - - -
24/12:30pm 31.5 W 8 13 1006.4 - 0.0 - - - - - - -
24/12:00pm 31.3 WSW 5 9 1006.8 - 0.0 - - - - - - -
24/11:30am 31.4 WSW 4 8 1007.1 - 0.0 - - - - - - -
24/11:00am 30.4 W 8 12 1007.4 - 0.0 - - - - - - -
24/10:30am 30.8 WSW 5 11 1007.7 - 0.0 - - - - - - -
24/10:00am 30.0 W 9 13 1007.6 - 0.0 - - - - - - -
24/09:30am 30.0 WSW 9 14 1007.3 - 0.0 - - - - - - -
24/09:00am 30.1 W 10 15 1007.1 - 0.4 Recent precip. - - - - - -
24/08:30am 29.4 WSW 8 14 1006.9 - 0.4 - - - - - - -
24/08:00am 29.1 WSW 7 13 1006.5 - 0.2 - - - - - - -
24/07:30am 29.1 W 10 15 1006.4 - 0.2 - - - - - - -
24/07:00am 29.0 W 12 18 1005.9 - 0.2 - - - - - - -
24/06:30am 28.9 WSW 11 17 1005.4 - 0.2 - - - - - - -
24/06:00am 28.9 W 12 17 1005.2 - 0.2 - - - - - - -
24/05:30am 28.9 W 13 18 1005.1 - 0.2 - - - - - - -
24/05:00am 28.8 W 13 21 1004.9 - 0.2 - - - - - - -
24/04:30am 28.9 W 15 19 1004.5 - 0.2 - - - - - - -
24/04:00am 28.8 W 12 18 1004.5 - 0.2 - - - - - - -
24/03:30am 28.7 W 10 15 1004.6 - 0.2 - - - - - - -
24/03:00am 28.8 W 9 15 1005.0 - 0.2 - - - - - - -
24/02:30am 28.7 W 8 13 1005.3 - 0.2 - - - - - - -
24/02:00am 28.7 W 7 16 1005.6 - 0.2 - - - - - - -
24/01:30am 28.8 W 13 17 1005.8 - 0.2 - - - - - - -
24/01:00am 28.8 W 8 15 1006.0 - 0.2 - - - - - - -
24/12:30am 28.9 W 10 16 1006.2 - 0.2 - - - - - - -
24/12:00am 29.0 W 7 12 1006.6 - 0.2 - - - - - - -
 
Date/Time
CST
Temp

°C
Wind Pressure Rain
since 9am
mm
Weather Cloud Vis
km
Sea
Height
m
Swell
Dir
 
Speed
knots
Gust
knots
hPa Trend Height
m
Period
s
Dir
23/11:30pm 29.0 W 8 13 1006.4 - 0.2 - - - - - - -
23/11:00pm 29.0 W 9 15 1006.1 - 0.2 - - - - - - -
23/10:30pm 29.0 W 10 15 1006.1 - 0.2 - - - - - - -
23/10:00pm 28.9 W 9 14 1005.6 - 0.2 - - - - - - -
23/09:30pm 28.9 W 8 14 1005.5 - 0.2 - - - - - - -
23/09:00pm 29.0 W 7 11 1005.6 - 0.2 - - - - - - -
23/08:30pm 29.0 W 7 12 1005.6 - 0.2 - - - - - - -
23/08:00pm 29.0 W 8 12 1005.5 - 0.2 - - - - - - -
23/07:30pm 28.9 W 8 14 1005.4 - 0.2 - - - - - - -
23/07:00pm 29.0 W 6 11 1005.3 - 0.2 - - - - - - -
23/06:30pm 29.1 W 9 16 1004.7 - 0.2 - - - - - - -
23/06:00pm 29.1 W 10 18 1004.3 - 0.2 - - - - - - -
23/05:30pm 28.9 W 12 18 1003.7 - 0.2 - - - - - - -
23/05:00pm 29.0 W 11 16 1003.6 - 0.2 - - - - - - -
23/04:30pm 28.5 W 7 14 1003.4 - 0.2 - - - - - - -
23/04:00pm 28.3 W 9 20 1003.4 - 0.2 - - - - - - -
23/03:30pm 27.9 W 9 15 1003.6 - 0.2 - - - - - - -
23/03:00pm 27.6 W 14 19 1003.0 - 0.2 - - - - - - -
23/02:30pm 27.5 W 12 20 1003.3 - 0.2 - - - - - - -
23/02:00pm 28.3 W 11 18 1004.3 - 0.2 - - - - - - -
23/01:30pm 28.4 WSW 9 18 1004.2 - 0.2 - - - - - - -
23/01:00pm 29.3 W 10 18 1004.9 - 0.2 - - - - - - -
23/12:30pm 29.6 W 15 22 1005.3 - 0.0 - - - - - - -
23/12:00pm 29.5 W 14 22 1005.1 - 0.0 - - - - - - -
23/11:30am 28.9 W 11 19 1005.2 - 0.0 - - - - - - -
23/11:00am 28.2 W 9 16 1005.2 - 0.0 - - - - - - -
23/10:30am 26.9 WNW 6 12 1006.0 - 0.0 - - - - - - -
23/10:00am 26.0 NW 6 11 1006.6 - 0.0 - - - - - - -

Other Formats:

Comma delimited format used in spreadsheet applications
http://www.bom.gov.au/fwo/IDD60701/IDD60701.94116.axf

JavaScript Object Notation format (JSON) in row-major order
http://www.bom.gov.au/fwo/IDD60701/IDD60701.94116.json